Flight Track Log - Related Links

Times and Time Zones

All times are in EDT time to prevent confusion due to time zone crossing. See the RPA1218 flight status page for this flight to view local times or setup timezone preferences in your user account.

Time Position Orientation Groundspeed Altitude Reporting Facility
EDT Latitude Longitude Course Direction KTS MPH feet Rate Location/Type
Mon 07:46:01 PM 33.4333 -112.0333 270° West 168 193 1,700  Level Phoenix TRACON
Mon 07:46:31 PM 33.4333 -112.0667 270° West 166 191 2,400 1,475 Climbing Phoenix TRACON
Mon 07:47:02 PM 33.4339 -112.0911 272° West 188 216 3,200 2,000 Climbing Albuquerque Center
Mon 07:48:04 PM 33.4472 -112.1717 281° West 265 305 5,500 2,585 Climbing Albuquerque Center
Mon 07:49:05 PM 33.5114 -112.1403 22° Northeast 291 335 8,500 2,683 Climbing Albuquerque Center
Mon 07:50:07 PM 33.5614 -112.0589 54° Northeast 307 353 11,000 2,439 Climbing Albuquerque Center
Mon 07:51:08 PM 33.6336 -111.9894 39° Northeast 336 387 13,500 2,537 Climbing Albuquerque Center
Mon 07:52:10 PM 33.7158 -111.9381 27° Northeast 335 386 16,200 2,732 Climbing Albuquerque Center
Mon 07:53:11 PM 33.8178 -111.8747 27° Northeast 351 404 19,100 2,439 Climbing Albuquerque Center
Mon 07:54:13 PM 33.9069 -111.8186 28° Northeast 361 415 21,200 2,146 Climbing Albuquerque Center
Mon 07:55:14 PM 34.0064 -111.7561 28° Northeast 373 429 23,500 1,918 Climbing Albuquerque Center
Mon 07:56:15 PM 34.0953 -111.6808 35° Northeast 392 451 25,100 1,512 Climbing Albuquerque Center
Mon 07:57:17 PM 34.1664 -111.5983 44° Northeast 410 472 26,600 1,707 Climbing Albuquerque Center
Mon 07:58:18 PM 34.2506 -111.5042 43° Northeast 414 476 28,600 1,951 Climbing Albuquerque Center
Mon 07:59:20 PM 34.3483 -111.3922 43° Northeast 407 468 30,600 1,707 Climbing Albuquerque Center
Mon 08:00:21 PM 34.4311 -111.2964 44° Northeast 410 472 32,100 1,171 Climbing Albuquerque Center
Mon 08:01:23 PM 34.5133 -111.2019 43° Northeast 410 472 33,000 439 Climbing Albuquerque Center
Mon 08:02:24 PM 34.5947 -111.1092 43° Northeast 404 465 33,000  Level Albuquerque Center
Mon 08:03:26 PM 34.6758 -111.0142 44° Northeast 404 465 33,000  Level Albuquerque Center
Mon 08:04:28 PM 34.7583 -110.9206 43° Northeast 405 466 33,000  Level Albuquerque Center
Mon 08:05:29 PM 34.8389 -110.8256 44° Northeast 405 466 33,000  Level Albuquerque Center
Mon 08:06:31 PM 34.9353 -110.7150 43° Northeast 400 460 33,000  Level Albuquerque Center
Mon 08:07:33 PM 35.0106 -110.6242 45° Northeast 398 458 33,000  Level Albuquerque Center
Mon 08:08:34 PM 35.0983 -110.5211 44° Northeast 394 453 33,000  Level Albuquerque Center
Mon 08:09:36 PM 35.1750 -110.4317 44° Northeast 396 456 33,000  Level Albuquerque Center
Mon 08:10:38 PM 35.2517 -110.3414 44° Northeast 398 458 33,000  Level Albuquerque Center
Mon 08:11:39 PM 35.3394 -110.2375 44° Northeast 395 455 33,000  Level Albuquerque Center
Mon 08:12:41 PM 35.4156 -110.1464 44° Northeast 398 458 33,000  Level Albuquerque Center
Mon 08:13:43 PM 35.5039 -110.0417 44° Northeast 396 456 33,000  Level Albuquerque Center
Mon 08:14:45 PM 35.5789 -109.9508 45° Northeast 396 456 33,000  Level Albuquerque Center
Mon 08:15:46 PM 35.6667 -109.8467 44° Northeast 393 452 33,000  Level Albuquerque Center
Mon 08:16:48 PM 35.7347 -109.7453 50° Northeast 399 459 33,000  Level Albuquerque Center
Mon 08:17:50 PM 35.8006 -109.6403 52° Northeast 402 463 33,000  Level Albuquerque Center
Mon 08:18:52 PM 35.8772 -109.5175 52° Northeast 405 466 33,000  Level Albuquerque Center
Mon 08:19:54 PM 35.9428 -109.4136 52° Northeast 401 461 33,000  Level Albuquerque Center
Mon 08:20:55 PM 36.0197 -109.2894 53° Northeast 405 466 33,000  Level Albuquerque Center
Mon 08:21:57 PM 36.0858 -109.1833 52° Northeast 405 466 33,000  Level Albuquerque Center
Mon 08:23:06 PM 36.1706 -109.0678 48° Northeast 404 465 33,000  Level Denver Center
Mon 08:24:07 PM 36.2642 -108.9603 43° Northeast 405 466 33,000  Level Denver Center
Mon 08:25:09 PM 36.3425 -108.8700 43° Northeast 400 460 33,000  Level Denver Center
Mon 08:26:11 PM 36.4203 -108.7792 43° Northeast 398 458 33,000  Level Denver Center
Mon 08:27:13 PM 36.5117 -108.6736 43° Northeast 401 461 33,000  Level Denver Center
Mon 08:28:14 PM 36.5769 -108.5964 44° Northeast 403 464 33,000  Level Denver Center
Mon 08:29:16 PM 36.6828 -108.4717 43° Northeast 409 471 33,000  Level Denver Center
Mon 08:30:18 PM 36.7617 -108.3803 43° Northeast 406 467 33,000  Level Denver Center
Mon 08:31:20 PM 36.8408 -108.2878 43° Northeast 406 467 33,000  Level Denver Center
Mon 08:32:21 PM 36.9306 -108.1811 44° Northeast 400 460 33,000  Level Denver Center
Mon 08:33:23 PM 37.0100 -108.0872 43° Northeast 406 467 33,000  Level Denver Center
Mon 08:34:25 PM 37.1036 -107.9783 43° Northeast 413 475 33,000  Level Denver Center
Mon 08:35:26 PM 37.1825 -107.8825 44° Northeast 412 474 33,000  Level Denver Center
Mon 08:36:28 PM 37.2739 -107.7733 44° Northeast 407 468 33,000  Level Denver Center
Mon 08:37:29 PM 37.3539 -107.6781 43° Northeast 412 474 33,000  Level Denver Center
Mon 08:38:31 PM 37.4339 -107.5833 43° Northeast 416 479 33,000  Level Denver Center
Mon 08:39:33 PM 37.5253 -107.4717 44° Northeast 411 473 33,000  Level Denver Center
Mon 08:40:34 PM 37.6036 -107.3778 44° Northeast 405 466 33,000  Level Denver Center
Mon 08:41:36 PM 37.6961 -107.2669 43° Northeast 410 472 33,000  Level Denver Center
Mon 08:42:37 PM 37.7736 -107.1708 44° Northeast 410 472 33,000  Level Denver Center
Mon 08:43:39 PM 37.8525 -107.0725 45° Northeast 411 473 33,000  Level Denver Center
Mon 08:44:41 PM 37.9461 -106.9597 44° Northeast 415 478 33,000  Level Denver Center
Mon 08:45:42 PM 38.0269 -106.8606 44° Northeast 420 483 33,000  Level Denver Center
Mon 08:46:44 PM 38.1203 -106.7458 44° Northeast 420 483 33,000  Level Denver Center
Mon 08:47:45 PM 38.1981 -106.6472 45° Northeast 415 478 33,000 -390 Level Denver Center
Mon 08:48:47 PM 38.2908 -106.5328 44° Northeast 417 480 32,200 -1,355 Descending Denver Center
Mon 08:49:49 PM 38.3908 -106.4089 44° Northeast 499 574 30,200 -2,000 Descending Denver Center
Mon 08:50:50 PM 38.4867 -106.2872 45° Northeast 491 565 28,100 -1,561 Descending Denver Center
Mon 08:51:52 PM 38.5797 -106.1708 44° Northeast 474 545 27,000 -823 Descending Denver Center
Mon 08:52:54 PM 38.6694 -106.0558 45° Northeast 468 539 26,400 -629 Descending Denver Center
Mon 08:53:56 PM 38.7711 -105.9278 44° Northeast 460 529 25,700 -683 Descending Denver Center
Mon 08:54:57 PM 38.8567 -105.8186 45° Northeast 455 524 25,000 -732 Descending Denver Center
Mon 08:55:59 PM 38.9531 -105.6950 45° Northeast 440 506 24,200 -732 Descending Denver Center
Mon 08:57:00 PM 39.0383 -105.5869 45° Northeast 446 513 23,500 -780 Descending Denver Center
Mon 08:58:02 PM 39.1286 -105.4711 45° Northeast 445 512 22,600 -1,694 Descending Denver Center
Mon 08:59:04 PM 39.2203 -105.3517 45° Northeast 429 494 20,000 -2,146 Descending Denver Center
Mon 09:00:05 PM 39.2725 -105.2300 61° Northeast 398 458 18,200 -1,561 Descending Denver Center
Mon 09:01:07 PM 39.2964 -105.1006 77° East 376 433 16,800 -1,210 Descending Denver Center
Mon 09:02:09 PM 39.3181 -104.9814 77° East 320 368 15,700 -976 Descending Denver Center
Mon 09:03:10 PM 39.3353 -104.8900 76° East 267 307 14,800 -1,122 Descending Denver Center
Mon 09:04:12 PM 39.3564 -104.8061 72° East 248 285 13,400 -829 Descending Denver Center
Mon 09:05:13 PM 39.3786 -104.7253 70° East 222 255 13,100 -146 Descending Denver Center
Mon 09:06:15 PM 39.4242 -104.6694 43° Northeast 236 272 13,100 -484 Level Denver Center
Mon 09:07:17 PM 39.4872 -104.6644 North 227 261 12,100 -1,122 Descending Denver Center
Mon 09:08:18 PM 39.5514 -104.6639 360° North 215 247 10,800 -927 Descending Denver Center
Mon 09:09:20 PM 39.5992 -104.6631 North 172 198 10,200 -732 Descending Denver Center
Mon 09:10:21 PM 39.6447 -104.6628 360° North 165 190 9,300 -927 Descending Denver Center
Mon 09:11:23 PM 39.6939 -104.6622 360° North 164 189 8,300 -927 Descending Denver Center
Mon 09:12:24 PM 39.7383 -104.6617 North 161 185 7,400 -878 Descending Denver Center
Mon 09:13:26 PM 39.7792 -104.6611 North 149 171 6,500 -829 Descending Denver Center
Mon 09:14:27 PM 39.8203 -104.6608 360° North 140 161 5,700 -537 Descending Denver Center
Mon 09:15:29 PM 39.8478 -104.6625 357° North 95 109 5,400 -290 Descending Denver Center
Mon 09:17:00 PM 39.8500 -104.6667 10° North  Level FlightAware Approximate
Mon 09:24:00 PM 39.8617 -104.6732 10° North  Level Estimated

Login

Don't have an account? Register now (free) for customized features, flight alerts, and more!